Time;durP1;ratioP1;P1;durP2;ratioP2;P2;SDS_P1;SDS_P2;PMS_P1;PMS_P2;Temp;Humidity;BMP_temperature;BMP_pressure;BME280_temperature;BME280_humidity;BME280_pressure;Samples;Min_cycle;Max_cycle;Signal;HPM_P1;HPM_P2
2023/06/16 00:01:35;;;;;;;13.60;7.95;;;;;;;14.86;100.00;101899.22;10332926;28;20069;-67
2023/06/16 00:06:36;;;;;;;11.30;7.90;;;;;;;14.82;100.00;101886.97;10329145;28;20122;-67
2023/06/16 00:11:38;;;;;;;8.75;6.63;;;;;;;14.75;100.00;101883.56;10330850;28;20038;-68
2023/06/16 00:16:39;;;;;;;9.82;6.05;;;;;;;14.81;100.00;101879.75;10375025;28;20414;-69
2023/06/16 00:21:41;;;;;;;10.25;5.55;;;;;;;14.80;100.00;101878.94;10363119;28;20518;-68
2023/06/16 00:26:42;;;;;;;7.47;4.85;;;;;;;14.70;100.00;101879.63;10372784;28;20030;-68
2023/06/16 00:31:42;;;;;;;8.38;5.18;;;;;;;14.64;100.00;101880.66;10365847;28;20057;-67
2023/06/16 00:36:43;;;;;;;6.68;4.57;;;;;;;14.62;100.00;101870.94;10357444;28;20034;-68
2023/06/16 00:41:43;;;;;;;6.82;4.80;;;;;;;14.56;100.00;101870.00;10373074;28;20034;-68
2023/06/16 00:46:44;;;;;;;7.47;4.35;;;;;;;14.50;100.00;101868.22;10373481;28;20042;-68
2023/06/16 00:51:46;;;;;;;6.78;4.10;;;;;;;14.41;100.00;101864.25;10373437;28;20065;-70
2023/06/16 00:56:46;;;;;;;6.47;4.38;;;;;;;14.31;100.00;101863.00;10349514;28;20054;-68
2023/06/16 01:01:48;;;;;;;6.03;4.18;;;;;;;14.14;100.00;101862.19;10344173;28;20489;-68
2023/06/16 01:06:57;;;;;;;6.18;4.38;;;;;;;13.88;100.00;101841.59;10372236;28;20072;-68
2023/06/16 01:11:57;;;;;;;8.38;5.32;;;;;;;13.97;100.00;101864.97;10370874;28;20056;-70
2023/06/16 01:16:58;;;;;;;13.20;7.25;;;;;;;13.90;100.00;101867.09;10361584;28;20085;-68
2023/06/16 01:22:36;;;;;;;10.60;7.78;;;;;;;13.79;100.00;101873.53;10345291;28;20046;-68
2023/06/16 01:27:37;;;;;;;12.10;7.65;;;;;;;13.64;100.00;101871.34;10371698;28;20046;-68
2023/06/16 01:32:37;;;;;;;13.80;7.75;;;;;;;13.52;100.00;101869.50;10372446;28;20122;-68
2023/06/16 01:37:41;;;;;;;10.02;7.00;;;;;;;13.43;100.00;101873.75;10374524;28;20324;-67
2023/06/16 01:42:43;;;;;;;10.38;6.88;;;;;;;13.40;100.00;101865.97;10337649;28;20030;-67
2023/06/16 01:47:44;;;;;;;7.13;5.30;;;;;;;13.27;100.00;101849.63;10371835;28;20038;-68
2023/06/16 01:52:44;;;;;;;8.18;5.50;;;;;;;13.38;100.00;101868.16;10349789;28;20132;-69
2023/06/16 01:57:47;;;;;;;8.90;5.50;;;;;;;13.37;100.00;101869.22;10346846;28;20112;-68
2023/06/16 02:02:50;;;;;;;9.32;5.85;;;;;;;13.18;100.00;101835.38;10359025;28;20033;-68
2023/06/16 02:07:52;;;;;;;6.70;4.80;;;;;;;13.25;100.00;101846.28;10370745;28;20046;-69
2023/06/16 02:12:54;;;;;;;9.00;5.50;;;;;;;13.19;100.00;101855.56;10352033;28;20057;-68
2023/06/16 02:17:57;;;;;;;9.30;6.00;;;;;;;13.19;100.00;101856.44;10351927;28;20541;-68
2023/06/16 02:22:58;;;;;;;8.40;5.85;;;;;;;13.19;100.00;101853.66;10369191;28;20129;-68
2023/06/16 02:27:58;;;;;;;9.57;6.03;;;;;;;13.18;100.00;101859.44;10369433;28;20557;-66
2023/06/16 02:33:00;;;;;;;8.98;6.22;;;;;;;13.13;100.00;101863.78;10371683;28;20038;-67
2023/06/16 02:38:01;;;;;;;9.20;5.97;;;;;;;13.12;100.00;101862.13;10372389;28;20472;-68
2023/06/16 02:43:02;;;;;;;10.40;6.95;;;;;;;13.12;100.00;101853.81;10330228;28;20093;-68
2023/06/16 02:48:03;;;;;;;11.95;6.75;;;;;;;13.12;100.00;101862.13;10345414;28;20073;-68
2023/06/16 02:53:05;;;;;;;9.40;6.50;;;;;;;13.09;100.00;101859.84;10321286;28;20042;-67
2023/06/16 02:58:06;;;;;;;13.32;7.60;;;;;;;13.06;100.00;101853.94;10346105;28;20102;-68
2023/06/16 03:03:07;;;;;;;13.02;7.50;;;;;;;13.14;100.00;101845.25;10329329;28;20069;-68
2023/06/16 03:08:09;;;;;;;11.27;7.28;;;;;;;13.11;100.00;101835.53;10327396;28;20047;-70
2023/06/16 03:13:09;;;;;;;13.95;8.45;;;;;;;13.20;100.00;101837.91;10304836;28;20069;-68
2023/06/16 03:18:11;;;;;;;10.93;8.05;;;;;;;13.30;100.00;101841.72;10332265;28;20031;-69
2023/06/16 03:23:14;;;;;;;11.75;9.20;;;;;;;13.38;100.00;101842.41;10329808;28;20038;-68
2023/06/16 03:28:16;;;;;;;10.13;7.10;;;;;;;13.46;100.00;101834.53;10345327;28;20073;-68
2023/06/16 03:33:16;;;;;;;16.23;9.27;;;;;;;13.41;100.00;101830.84;10371347;28;20410;-68
2023/06/16 03:38:17;;;;;;;12.50;9.15;;;;;;;13.37;100.00;101838.78;10367040;28;20545;-68
2023/06/16 03:43:17;;;;;;;11.48;8.40;;;;;;;13.27;100.00;101831.13;10359306;28;20421;-67
2023/06/16 03:48:18;;;;;;;16.00;8.50;;;;;;;13.18;100.00;101835.38;10376078;28;20038;-67
2023/06/16 03:53:20;;;;;;;13.75;9.95;;;;;;;13.09;100.00;101840.47;10378427;28;20038;-68
2023/06/16 03:58:22;;;;;;;16.25;10.75;;;;;;;12.80;100.00;101791.84;10374056;28;20501;-68
2023/06/16 04:03:25;;;;;;;16.25;11.15;;;;;;;13.08;100.00;101840.72;10368128;28;20037;-68
2023/06/16 04:08:26;;;;;;;15.63;11.10;;;;;;;13.07;100.00;101845.41;10334244;28;20066;-68
2023/06/16 04:13:27;;;;;;;16.63;12.52;;;;;;;13.06;100.00;101838.22;10336758;28;20058;-67
2023/06/16 04:18:27;;;;;;;18.23;12.48;;;;;;;13.04;100.00;101826.56;10360517;28;20033;-67
2023/06/16 04:23:28;;;;;;;19.90;12.38;;;;;;;13.19;100.00;101847.28;10320615;28;20438;-68
2023/06/16 04:28:31;;;;;;;18.17;12.70;;;;;;;13.23;100.00;101854.84;10353475;28;20041;-68
2023/06/16 04:33:31;;;;;;;19.55;13.52;;;;;;;13.30;100.00;101854.72;10336181;28;20037;-69
2023/06/16 04:38:32;;;;;;;19.90;15.38;;;;;;;13.35;100.00;101840.97;10356913;28;20069;-68
2023/06/16 04:43:33;;;;;;;22.92;14.95;;;;;;;13.47;100.00;101850.03;10358741;28;20557;-66
2023/06/16 04:48:33;;;;;;;23.13;15.70;;;;;;;13.60;100.00;101845.28;10357163;28;20133;-68
2023/06/16 04:53:34;;;;;;;29.85;16.50;;;;;;;13.76;100.00;101843.59;10373913;28;20041;-68
2023/06/16 04:58:34;;;;;;;23.35;15.35;;;;;;;13.89;100.00;101841.34;10373185;28;20048;-68
2023/06/16 05:03:36;;;;;;;23.35;16.25;;;;;;;14.03;100.00;101840.97;10372480;28;20042;-68
2023/06/16 05:08:36;;;;;;;25.13;15.50;;;;;;;14.19;100.00;101829.03;10372475;28;20034;-68
2023/06/16 05:13:37;;;;;;;24.20;16.52;;;;;;;14.40;100.00;101830.13;10375917;28;20482;-69
2023/06/16 05:18:37;;;;;;;24.60;16.63;;;;;;;14.60;100.00;101834.31;10372427;28;20076;-68
2023/06/16 05:23:38;;;;;;;27.05;16.30;;;;;;;14.72;100.00;101815.63;10372619;28;20130;-68
2023/06/16 05:28:38;;;;;;;23.60;15.40;;;;;;;14.99;100.00;101828.69;10373198;28;20034;-67
2023/06/16 05:33:39;;;;;;;23.35;15.98;;;;;;;15.23;100.00;101827.25;10361109;28;20290;-68
2023/06/16 05:38:39;;;;;;;20.05;13.95;;;;;;;15.47;100.00;101816.66;10373571;28;20422;-67
2023/06/16 05:43:40;;;;;;;21.92;14.95;;;;;;;15.73;100.00;101809.41;10374607;28;20563;-68
2023/06/16 05:48:40;;;;;;;21.95;15.32;;;;;;;15.98;100.00;101816.25;10347478;28;20495;-69
2023/06/16 05:53:41;;;;;;;19.77;14.20;;;;;;;16.21;100.00;101812.22;10356183;28;20402;-71
2023/06/16 05:58:42;;;;;;;16.48;12.52;;;;;;;16.49;100.00;101816.50;10371781;28;20115;-69
2023/06/16 06:03:45;;;;;;;13.30;9.23;;;;;;;16.92;100.00;101816.41;10355443;28;20526;-68
2023/06/16 06:08:46;;;;;;;13.73;10.05;;;;;;;17.12;100.00;101785.84;10372038;28;20041;-68
2023/06/16 06:13:46;;;;;;;12.48;9.40;;;;;;;17.58;100.00;101809.25;10373621;28;20037;-68
2023/06/16 06:18:47;;;;;;;10.55;8.05;;;;;;;17.91;100.00;101808.69;10371960;28;20038;-69
2023/06/16 06:23:48;;;;;;;16.27;10.77;;;;;;;18.04;100.00;101798.06;10373244;28;20037;-69
2023/06/16 06:28:48;;;;;;;15.23;10.07;;;;;;;18.25;100.00;101805.28;10334048;28;20133;-68
2023/06/16 06:33:49;;;;;;;14.68;10.10;;;;;;;18.54;100.00;101807.38;10327849;28;20041;-68
2023/06/16 06:38:50;;;;;;;11.38;8.63;;;;;;;18.71;100.00;101809.84;10300298;28;20030;-68
2023/06/16 06:43:50;;;;;;;13.32;10.35;;;;;;;18.86;100.00;101815.34;10347762;28;20030;-69
2023/06/16 06:48:51;;;;;;;15.93;11.48;;;;;;;19.11;100.00;101810.75;10326393;28;20042;-68
2023/06/16 06:53:51;;;;;;;15.70;10.95;;;;;;;19.47;100.00;101822.50;10345559;28;20046;-69
2023/06/16 06:58:52;;;;;;;12.02;7.90;;;;;;;19.49;100.00;101763.53;10317860;28;20042;-67
2023/06/16 07:03:53;;;;;;;12.85;9.18;;;;;;;19.73;100.00;101816.69;10331547;28;20092;-69
2023/06/16 07:08:53;;;;;;;9.93;7.00;;;;;;;20.02;100.00;101818.66;10326604;28;20052;-68
2023/06/16 07:13:54;;;;;;;10.02;6.50;;;;;;;20.10;100.00;101812.44;10324260;28;20053;-69
2023/06/16 07:18:54;;;;;;;8.57;5.43;;;;;;;20.33;100.00;101800.41;10344423;28;20057;-69
2023/06/16 07:23:55;;;;;;;6.85;5.10;;;;;;;20.49;100.00;101803.03;10337066;28;20058;-69
2023/06/16 07:28:55;;;;;;;8.15;5.57;;;;;;;20.76;100.00;101808.84;10333937;28;20034;-69
2023/06/16 07:33:56;;;;;;;6.53;5.43;;;;;;;20.87;100.00;101809.53;10335503;28;20037;-69
2023/06/16 07:38:56;;;;;;;10.68;5.72;;;;;;;21.00;100.00;101805.19;10335731;28;20541;-69
2023/06/16 07:43:57;;;;;;;6.70;5.15;;;;;;;21.06;100.00;101811.50;10334706;28;20132;-69
2023/06/16 07:48:58;;;;;;;7.97;5.00;;;;;;;21.23;100.00;101810.97;10352003;28;20514;-70
2023/06/16 07:53:58;;;;;;;8.32;5.38;;;;;;;21.26;100.00;101807.56;10338550;28;20046;-69
2023/06/16 07:58:59;;;;;;;5.93;4.57;;;;;;;21.41;100.00;101807.31;10354485;28;20041;-70
2023/06/16 08:03:59;;;;;;;8.52;5.15;;;;;;;21.41;100.00;101807.31;10366026;28;20045;-69
2023/06/16 08:08:59;;;;;;;8.63;4.53;;;;;;;21.14;100.00;101808.03;10354716;28;20042;-70
2023/06/16 08:14:00;;;;;;;5.13;4.18;;;;;;;21.40;100.00;101790.84;10337829;28;20049;-69
2023/06/16 08:19:02;;;;;;;4.25;3.40;;;;;;;21.62;100.00;101790.19;10341532;28;20042;-68
2023/06/16 08:24:02;;;;;;;7.90;5.00;;;;;;;21.87;100.00;101780.47;10353542;28;20097;-69
2023/06/16 08:29:05;;;;;;;6.75;4.30;;;;;;;21.89;100.00;101779.06;10352104;28;20030;-69
2023/06/16 08:34:07;;;;;;;6.00;3.80;;;;;;;21.84;100.00;101711.84;10336681;28;20064;-71
2023/06/16 08:39:09;;;;;;;7.15;3.88;;;;;;;22.46;100.00;101769.53;10354439;28;20080;-69
2023/06/16 08:44:11;;;;;;;5.07;3.45;;;;;;;22.35;100.00;101752.91;10338416;28;20042;-70
2023/06/16 08:49:15;;;;;;;4.97;3.53;;;;;;;22.53;100.00;101755.91;10372365;28;20034;-70
2023/06/16 08:54:16;;;;;;;4.40;3.45;;;;;;;22.43;96.91;101742.09;10373112;28;20049;-70
2023/06/16 08:59:20;;;;;;;4.05;3.47;;;;;;;22.59;96.72;101745.38;10374111;28;20489;-73
2023/06/16 09:04:22;;;;;;;3.58;3.08;;;;;;;22.56;91.97;101730.03;10353158;28;20427;-74
2023/06/16 09:09:23;;;;;;;5.07;2.80;;;;;;;22.67;91.01;101736.22;10352494;28;20472;-72
2023/06/16 09:14:24;;;;;;;4.15;2.78;;;;;;;22.61;88.58;101737.50;10352950;28;20035;-73
2023/06/16 09:19:26;;;;;;;3.95;2.38;;;;;;;22.64;86.00;101736.88;10338005;28;20033;-72
2023/06/16 09:24:27;;;;;;;3.55;2.13;;;;;;;22.73;76.58;101720.94;10350257;28;20509;-73
2023/06/16 09:29:28;;;;;;;3.17;2.20;;;;;;;22.85;74.98;101714.78;10350753;28;20049;-74
2023/06/16 09:34:32;;;;;;;4.63;2.20;;;;;;;22.58;69.36;101698.84;10351410;28;20041;-73
2023/06/16 09:39:32;;;;;;;3.45;2.08;;;;;;;22.62;68.08;101709.13;10353579;28;20046;-73
2023/06/16 09:44:33;;;;;;;3.88;2.20;;;;;;;23.02;68.61;101709.31;10350615;28;20352;-73
2023/06/16 09:49:34;;;;;;;8.50;3.83;;;;;;;23.34;65.86;101707.41;10351651;28;20046;-72
2023/06/16 09:54:35;;;;;;;5.05;1.63;;;;;;;23.56;67.88;101707.38;10354548;28;20065;-74
2023/06/16 09:59:36;;;;;;;4.40;2.13;;;;;;;23.41;66.10;101716.19;10351201;28;20038;-71
2023/06/16 10:04:36;;;;;;;3.67;1.80;;;;;;;23.64;66.08;101716.97;10323957;28;20046;-72
2023/06/16 10:09:44;;;;;;;6.95;2.28;;;;;;;23.86;67.07;101716.13;10347905;28;20041;-72
2023/06/16 10:14:45;;;;;;;4.18;1.90;;;;;;;23.87;66.66;101723.38;10342568;28;20050;-72
2023/06/16 10:19:50;;;;;;;2.17;1.70;;;;;;;24.04;66.68;101716.16;10356235;28;20483;-72
2023/06/16 10:24:51;;;;;;;7.05;2.33;;;;;;;24.07;64.13;101710.72;10339124;28;20101;-72
2023/06/16 10:29:51;;;;;;;6.93;1.95;;;;;;;24.17;65.38;101704.81;10346307;28;20062;-72
2023/06/16 10:34:56;;;;;;;3.30;1.75;;;;;;;24.15;64.03;101689.41;10334085;28;20034;-74
2023/06/16 10:39:57;;;;;;;4.85;2.03;;;;;;;24.35;63.59;101685.13;10349820;28;20038;-71
2023/06/16 10:44:58;;;;;;;4.63;2.03;;;;;;;24.55;63.78;101689.34;10350778;28;20054;-71
2023/06/16 10:50:02;;;;;;;2.78;1.70;;;;;;;24.46;64.36;101694.13;10369360;28;20037;-72
2023/06/16 10:55:25;;;;;;;3.70;1.80;;;;;;;24.62;63.50;101688.84;10376878;28;20046;-73
2023/06/16 11:00:27;;;;;;;3.42;1.45;;;;;;;24.66;65.45;101687.88;10362000;28;20061;-70
2023/06/16 11:05:38;;;;;;;2.50;1.90;;;;;;;24.75;65.08;101696.31;10362536;28;20034;-72
2023/06/16 11:10:49;;;;;;;3.35;1.98;;;;;;;24.67;63.74;101697.97;10378635;28;20034;-73
2023/06/16 11:15:50;;;;;;;4.55;1.95;;;;;;;24.45;61.36;101675.56;10378809;28;20044;-72
2023/06/16 11:21:00;;;;;;;2.47;1.58;;;;;;;24.50;63.32;101692.31;10367896;28;20470;-72
2023/06/16 11:26:11;;;;;;;4.47;1.80;;;;;;;24.96;62.60;101680.38;10322422;28;20134;-72
2023/06/16 11:31:12;;;;;;;5.00;1.77;;;;;;;25.09;59.91;101664.44;10321659;28;20034;-71
2023/06/16 11:36:16;;;;;;;2.60;2.00;;;;;;;25.00;59.83;101671.28;10339329;28;20034;-72
2023/06/16 11:41:17;;;;;;;2.42;1.70;;;;;;;25.56;57.16;101656.06;10364088;28;20069;-73
2023/06/16 11:46:26;;;;;;;2.92;1.30;;;;;;;26.02;58.35;101653.53;10377938;28;20457;-72
2023/06/16 11:51:26;;;;;;;4.75;1.75;;;;;;;26.60;54.70;101655.84;10378866;28;20033;-71
2023/06/16 11:56:27;;;;;;;3.90;1.88;;;;;;;26.97;53.49;101642.69;10376698;28;20034;-72
2023/06/16 12:01:28;;;;;;;5.72;2.13;;;;;;;26.21;52.17;101644.66;10378349;28;20049;-70
2023/06/16 12:06:29;;;;;;;2.25;1.85;;;;;;;26.03;52.97;101660.84;10376701;28;20077;-71
2023/06/16 12:11:30;;;;;;;4.82;1.40;;;;;;;26.25;50.34;101639.97;10374174;28;20065;-72
2023/06/16 12:16:31;;;;;;;3.53;1.55;;;;;;;26.73;49.35;101638.59;10351340;28;20509;-73
2023/06/16 12:21:31;;;;;;;2.83;1.70;;;;;;;26.84;48.92;101638.19;10335280;28;20038;-70
2023/06/16 12:26:41;;;;;;;2.25;1.70;;;;;;;27.04;49.56;101640.13;10337219;28;20039;-70
2023/06/16 12:31:55;;;;;;;2.28;1.60;;;;;;;27.40;45.47;101632.94;10356071;28;20041;-70
2023/06/16 12:37:00;;;;;;;4.28;1.70;;;;;;;27.46;44.14;101630.72;10374245;28;20041;-71
2023/06/16 12:42:05;;;;;;;6.20;1.83;;;;;;;27.51;43.97;101630.47;10376515;28;20037;-72
2023/06/16 12:47:06;;;;;;;4.80;1.77;;;;;;;27.62;43.57;101630.81;10376591;28;20052;-71
2023/06/16 12:52:06;;;;;;;4.15;1.50;;;;;;;27.66;42.24;101618.47;10376899;28;20309;-71
2023/06/16 12:57:08;;;;;;;3.78;1.73;;;;;;;27.14;42.31;101556.88;10374829;28;20565;-70
2023/06/16 13:02:09;;;;;;;3.38;1.40;;;;;;;28.01;41.81;101623.66;10375816;28;20545;-71
2023/06/16 13:07:09;;;;;;;3.63;1.50;;;;;;;28.50;41.58;101628.41;10374950;28;20038;-73
2023/06/16 13:12:11;;;;;;;2.20;1.58;;;;;;;28.52;41.46;101620.38;10374083;28;20042;-71
2023/06/16 13:17:11;;;;;;;3.30;1.85;;;;;;;28.31;41.81;101626.19;10357238;28;20044;-73
2023/06/16 13:22:11;;;;;;;2.13;1.33;;;;;;;28.71;42.61;101631.91;10375581;28;20041;-73
2023/06/16 13:27:12;;;;;;;2.03;1.58;;;;;;;28.87;43.65;101625.44;10373100;28;20092;-73
2023/06/16 13:32:12;;;;;;;2.90;1.52;;;;;;;28.46;43.04;101605.63;10373199;28;20041;-73
2023/06/16 13:37:13;;;;;;;1.73;1.48;;;;;;;28.97;43.43;101620.06;10374464;28;20038;-72
2023/06/16 13:42:13;;;;;;;3.00;1.88;;;;;;;29.12;42.82;101609.16;10373282;28;20060;-76
2023/06/16 13:47:14;;;;;;;2.80;1.65;;;;;;;28.93;43.04;101607.78;10374181;28;20189;-71
2023/06/16 13:52:14;;;;;;;2.50;1.70;;;;;;;28.65;43.03;101601.31;10372564;28;20064;-71
2023/06/16 13:57:15;;;;;;;3.47;1.55;;;;;;;28.61;43.35;101595.56;10372968;28;20049;-70
2023/06/16 14:02:15;;;;;;;3.45;1.73;;;;;;;29.08;43.24;101600.50;10356486;28;20041;-71
2023/06/16 14:07:16;;;;;;;3.45;1.70;;;;;;;28.85;43.32;101594.63;10372766;28;20046;-74
2023/06/16 14:12:16;;;;;;;1.77;1.63;;;;;;;28.71;44.30;101606.41;10371882;28;20037;-71
2023/06/16 14:17:17;;;;;;;4.07;1.92;;;;;;;29.40;44.53;101568.56;10373376;28;20034;-71
2023/06/16 14:22:17;;;;;;;2.78;2.05;;;;;;;29.74;43.72;101599.00;10373462;28;20038;-71
2023/06/16 14:27:18;;;;;;;2.22;1.63;;;;;;;30.16;42.51;101591.88;10367585;28;20052;-71
2023/06/16 14:32:18;;;;;;;5.75;1.77;;;;;;;30.01;41.00;101593.53;10338602;28;20034;-71
2023/06/16 14:37:19;;;;;;;2.03;1.40;;;;;;;29.80;39.90;101579.69;10337189;28;20052;-71
2023/06/16 14:42:20;;;;;;;5.97;1.90;;;;;;;29.69;38.97;101581.41;10362707;28;20050;-71
2023/06/16 14:47:20;;;;;;;3.13;1.50;;;;;;;29.72;38.00;101575.84;10349564;28;20057;-71
2023/06/16 14:52:21;;;;;;;9.15;3.15;;;;;;;30.12;37.83;101559.72;10350637;28;20030;-72
2023/06/16 14:57:21;;;;;;;5.18;1.98;;;;;;;30.47;35.61;101553.16;10350400;28;20037;-71
2023/06/16 15:02:22;;;;;;;3.10;1.95;;;;;;;30.64;35.68;101557.59;10372750;28;20487;-71
2023/06/16 15:07:22;;;;;;;3.80;1.90;;;;;;;30.56;35.85;101567.97;10368870;28;20088;-71
2023/06/16 15:12:23;;;;;;;2.50;1.77;;;;;;;29.65;36.63;101552.94;10371161;28;20042;-72
2023/06/16 15:17:23;;;;;;;3.38;2.05;;;;;;;29.77;37.90;101571.91;10336465;28;20034;-71
2023/06/16 15:22:25;;;;;;;4.43;1.77;;;;;;;30.11;37.42;101549.56;10350673;28;20042;-71
2023/06/16 15:27:26;;;;;;;2.20;1.73;;;;;;;30.30;37.42;101554.44;10338676;28;20042;-72
2023/06/16 15:32:26;;;;;;;2.42;1.77;;;;;;;30.10;37.25;101543.06;10356871;28;20038;-71
2023/06/16 15:37:27;;;;;;;3.63;2.45;;;;;;;29.95;37.94;101544.78;10353896;28;20038;-68
2023/06/16 15:42:27;;;;;;;3.75;2.47;;;;;;;29.82;38.89;101554.59;10354811;28;20042;-71
2023/06/16 15:47:28;;;;;;;3.30;1.90;;;;;;;30.01;38.81;101548.13;10351909;28;20076;-71
2023/06/16 15:52:29;;;;;;;5.15;2.33;;;;;;;29.70;40.31;101554.69;10354553;28;20034;-74
2023/06/16 15:57:29;;;;;;;5.47;3.03;;;;;;;30.22;40.40;101536.41;10356970;28;20094;-71
2023/06/16 16:02:30;;;;;;;2.83;2.00;;;;;;;30.75;40.74;101550.88;10366813;28;20038;-72
2023/06/16 16:07:31;;;;;;;3.17;2.50;;;;;;;29.45;42.67;101554.91;10376378;28;20041;-70
2023/06/16 16:12:31;;;;;;;6.25;2.47;;;;;;;29.46;43.97;101544.41;10377488;28;20057;-70
2023/06/16 16:17:33;;;;;;;4.55;2.08;;;;;;;30.11;44.74;101563.75;10375386;28;20030;-71
2023/06/16 16:22:33;;;;;;;5.68;2.55;;;;;;;30.28;44.33;101546.25;10376059;28;20042;-70
2023/06/16 16:27:35;;;;;;;3.50;2.40;;;;;;;30.56;44.25;101550.94;10377788;28;20038;-71
2023/06/16 16:32:37;;;;;;;5.68;2.63;;;;;;;30.69;43.80;101546.72;10373953;28;20034;-71
2023/06/16 16:37:37;;;;;;;5.18;2.60;;;;;;;30.13;43.15;101539.47;10374463;28;20042;-70
2023/06/16 16:42:38;;;;;;;5.15;2.63;;;;;;;28.86;44.19;101535.94;10373734;28;20050;-71
2023/06/16 16:47:38;;;;;;;4.18;2.53;;;;;;;27.29;45.58;101541.28;10376187;28;20050;-72
2023/06/16 16:52:39;;;;;;;3.08;2.03;;;;;;;26.68;46.05;101517.34;10376047;28;20057;-68
2023/06/16 16:57:39;;;;;;;3.53;2.63;;;;;;;25.74;47.77;101544.00;10375207;28;20037;-71
2023/06/16 17:02:40;;;;;;;4.63;2.55;;;;;;;24.81;48.51;101545.72;10392721;28;20041;-72
2023/06/16 17:07:40;;;;;;;3.95;2.58;;;;;;;24.36;50.56;101555.38;10400371;28;20053;-72
2023/06/16 17:12:41;;;;;;;4.95;2.28;;;;;;;23.68;53.13;101565.34;10397360;28;20030;-71
2023/06/16 17:17:41;;;;;;;5.28;2.47;;;;;;;23.53;54.78;101572.25;10398128;28;20036;-71
2023/06/16 17:22:42;;;;;;;8.63;2.80;;;;;;;23.37;55.86;101563.44;10393360;28;20045;-71
2023/06/16 17:27:42;;;;;;;3.65;2.53;;;;;;;23.24;56.25;101570.00;10413885;28;20030;-71
2023/06/16 17:32:43;;;;;;;5.38;3.30;;;;;;;22.97;57.66;101567.03;10389789;28;20053;-72
2023/06/16 17:37:46;;;;;;;3.80;3.00;;;;;;;22.65;60.50;101570.94;10386845;28;20046;-71
2023/06/16 17:42:46;;;;;;;4.05;2.95;;;;;;;22.17;61.87;101565.94;10399619;28;20061;-73
2023/06/16 17:47:47;;;;;;;4.78;3.53;;;;;;;22.08;63.00;101573.44;10384430;28;20080;-71
2023/06/16 17:52:47;;;;;;;5.72;3.63;;;;;;;21.76;63.66;101572.44;10397910;28;20057;-70
2023/06/16 17:57:48;;;;;;;5.32;4.07;;;;;;;21.54;64.91;101579.63;10412450;28;20033;-70
2023/06/16 18:02:48;;;;;;;6.13;4.22;;;;;;;21.30;66.91;101582.59;10411831;28;20083;-70
2023/06/16 18:07:51;;;;;;;8.50;3.90;;;;;;;21.15;68.46;101592.13;10413210;28;20033;-71
2023/06/16 18:12:52;;;;;;;6.20;3.95;;;;;;;20.98;70.32;101589.09;10412776;28;20033;-69
2023/06/16 18:17:52;;;;;;;5.35;3.47;;;;;;;20.99;72.43;101593.53;10411593;28;20040;-70
2023/06/16 18:22:53;;;;;;;6.15;3.67;;;;;;;20.75;73.53;101583.34;10411231;28;20045;-71
2023/06/16 18:27:56;;;;;;;6.10;3.50;;;;;;;20.67;75.46;101591.56;10380075;28;20096;-71
2023/06/16 18:32:56;;;;;;;5.82;3.45;;;;;;;20.52;77.87;101578.63;10379806;28;20042;-75
2023/06/16 18:37:57;;;;;;;8.10;3.97;;;;;;;20.32;79.29;101585.41;10398062;28;20045;-68
2023/06/16 18:42:57;;;;;;;5.00;3.40;;;;;;;20.18;81.65;101588.13;10399576;28;21132;-70
2023/06/16 18:47:58;;;;;;;7.47;3.85;;;;;;;20.06;82.96;101582.97;10383257;28;20065;-70
2023/06/16 18:52:58;;;;;;;7.30;3.60;;;;;;;19.88;85.39;101586.56;10413532;28;20550;-71
2023/06/16 18:57:59;;;;;;;7.82;4.22;;;;;;;19.73;88.50;101590.41;10362532;28;20046;-71
2023/06/16 19:03:00;;;;;;;9.18;4.13;;;;;;;19.47;91.10;101571.16;10377726;28;20117;-71
2023/06/16 19:08:00;;;;;;;5.25;3.28;;;;;;;19.48;94.92;101592.34;10394453;28;20038;-70
2023/06/16 19:13:01;;;;;;;7.70;3.70;;;;;;;19.35;98.58;101601.44;10415996;28;20041;-70
2023/06/16 19:18:01;;;;;;;10.88;4.40;;;;;;;19.10;100.00;101603.38;10395708;28;20049;-70
2023/06/16 19:23:02;;;;;;;7.03;4.00;;;;;;;18.93;100.00;101614.13;10384399;28;20050;-70
2023/06/16 19:28:03;;;;;;;9.20;4.88;;;;;;;18.74;100.00;101630.72;10390512;28;20555;-71
2023/06/16 19:33:03;;;;;;;8.82;5.03;;;;;;;18.54;100.00;101621.41;10356687;28;20033;-70
2023/06/16 19:38:05;;;;;;;8.38;3.80;;;;;;;18.35;100.00;101629.63;10376648;28;20117;-71
2023/06/16 19:43:06;;;;;;;6.20;4.28;;;;;;;18.19;100.00;101625.25;10388150;28;20034;-71
2023/06/16 19:48:06;;;;;;;5.43;4.10;;;;;;;17.99;100.00;101630.94;10383972;28;20041;-72
2023/06/16 19:53:07;;;;;;;5.88;4.28;;;;;;;17.76;100.00;101633.22;10373778;28;20034;-72
2023/06/16 19:58:07;;;;;;;6.57;4.38;;;;;;;17.61;100.00;101636.91;10365339;28;20030;-71
2023/06/16 20:03:08;;;;;;;9.35;5.95;;;;;;;17.50;100.00;101641.66;10387273;28;20041;-72
2023/06/16 20:08:08;;;;;;;9.63;5.47;;;;;;;17.39;100.00;101645.59;10378039;28;20545;-71
2023/06/16 20:13:10;;;;;;;11.52;5.43;;;;;;;17.29;100.00;101648.38;10403255;28;20041;-70
2023/06/16 20:18:10;;;;;;;10.60;5.72;;;;;;;17.09;100.00;101625.03;10370833;28;20045;-71
2023/06/16 20:23:12;;;;;;;8.88;5.55;;;;;;;17.00;100.00;101648.16;10339246;28;20069;-72
2023/06/16 20:28:13;;;;;;;7.82;5.50;;;;;;;16.81;100.00;101645.09;10343783;28;20090;-70
2023/06/16 20:33:13;;;;;;;10.90;5.55;;;;;;;16.71;100.00;101657.81;10306627;28;20057;-71
2023/06/16 20:38:14;;;;;;;10.65;5.28;;;;;;;16.60;100.00;101646.97;10311643;28;20042;-70
2023/06/16 20:43:14;;;;;;;8.77;5.68;;;;;;;16.40;100.00;101629.16;10310304;28;20046;-71
2023/06/16 20:48:15;;;;;;;7.75;5.07;;;;;;;16.38;100.00;101652.78;10308678;28;20050;-71
2023/06/16 20:53:17;;;;;;;8.80;6.00;;;;;;;15.90;100.00;101580.72;10312111;28;20038;-71
2023/06/16 20:58:18;;;;;;;8.38;6.50;;;;;;;16.12;100.00;101645.22;10326016;28;20042;-70
2023/06/16 21:03:21;;;;;;;10.93;7.07;;;;;;;16.05;100.00;101632.69;10364832;28;20042;-71
2023/06/16 21:08:24;;;;;;;9.88;6.00;;;;;;;15.98;100.00;101640.41;10398710;28;20045;-71
2023/06/16 21:13:25;;;;;;;15.27;7.05;;;;;;;15.87;100.00;101637.59;10387214;28;20046;-72
2023/06/16 21:18:29;;;;;;;11.77;7.10;;;;;;;15.77;100.00;101637.56;10398241;28;20045;-71
2023/06/16 21:23:29;;;;;;;11.25;7.65;;;;;;;15.76;100.00;101638.69;10396197;28;20533;-70
2023/06/16 21:28:30;;;;;;;10.98;7.30;;;;;;;15.66;100.00;101635.81;10394908;28;20041;-72
2023/06/16 21:33:30;;;;;;;11.75;7.82;;;;;;;15.57;100.00;101645.78;10413421;28;20029;-73
2023/06/16 21:38:35;;;;;;;10.57;7.53;;;;;;;15.49;100.00;101636.00;10413891;28;20065;-73
2023/06/16 21:43:39;;;;;;;13.65;7.78;;;;;;;15.43;100.00;101632.38;10402756;28;20026;-72
2023/06/16 21:48:41;;;;;;;11.57;8.85;;;;;;;15.34;100.00;101628.44;10413896;28;20073;-72
2023/06/16 21:53:42;;;;;;;15.40;8.52;;;;;;;15.11;100.00;101602.78;10411152;28;20112;-72
2023/06/16 21:58:43;;;;;;;14.10;8.77;;;;;;;15.14;100.00;101606.94;10392504;28;20045;-72
2023/06/16 22:03:43;;;;;;;17.08;9.82;;;;;;;15.06;100.00;101605.50;10400829;28;20041;-72
2023/06/16 22:08:44;;;;;;;13.43;8.63;;;;;;;14.98;100.00;101608.75;10378328;28;20037;-73
2023/06/16 22:13:45;;;;;;;14.70;9.55;;;;;;;14.90;100.00;101612.88;10397785;28;20044;-72
2023/06/16 22:18:46;;;;;;;17.42;10.10;;;;;;;14.84;100.00;101615.84;10377758;28;20048;-72
2023/06/16 22:23:48;;;;;;;15.82;9.10;;;;;;;14.80;100.00;101614.72;10389401;28;20046;-73
2023/06/16 22:28:48;;;;;;;14.50;9.98;;;;;;;14.90;100.00;101617.56;10390595;28;20049;-72
2023/06/16 22:33:49;;;;;;;20.55;10.00;;;;;;;15.11;100.00;101622.19;10383997;28;20049;-72
2023/06/16 22:38:50;;;;;;;17.27;11.05;;;;;;;15.23;100.00;101626.69;10372306;28;20094;-73
2023/06/16 22:43:52;;;;;;;18.10;12.02;;;;;;;15.28;100.00;101624.78;10391829;28;20038;-72
2023/06/16 22:48:53;;;;;;;17.90;11.35;;;;;;;15.28;100.00;101601.75;10404145;28;20056;-71